createdAt,value
2022-12-12T00:04:59.069Z,89.54
2022-12-12T00:10:03.166Z,89.45
2022-12-12T00:15:07.346Z,89.33
2022-12-12T00:20:10.373Z,89.43
2022-12-12T00:25:13.705Z,89.44
2022-12-12T00:30:17.837Z,89.38
2022-12-12T00:35:22.588Z,89.35
2022-12-12T00:40:25.397Z,89.29
2022-12-12T00:45:30.277Z,89.21
2022-12-12T00:50:34.517Z,88.91
2022-12-12T00:55:37.341Z,89.30
2022-12-12T01:00:41.793Z,89.10
2022-12-12T01:05:47.037Z,89.15
2022-12-12T01:10:50.057Z,89.30
2022-12-12T01:15:53.056Z,89.50
2022-12-12T01:20:55.886Z,89.53
2022-12-12T01:26:08.707Z,89.34
2022-12-12T01:31:11.941Z,89.39
2022-12-12T01:36:17.037Z,89.18
2022-12-12T01:41:20.109Z,89.29
2022-12-12T01:46:40.022Z,89.06
2022-12-12T01:51:43.321Z,89.18
2022-12-12T01:56:47.272Z,89.38
2022-12-12T02:01:50.562Z,89.47
2022-12-12T02:06:54.031Z,89.75
2022-12-12T02:11:57.388Z,89.70
2022-12-12T02:17:49.934Z,89.38
2022-12-12T02:23:21.993Z,89.59
2022-12-12T02:29:10.208Z,89.53
2022-12-12T02:34:34.308Z,89.41
2022-12-12T02:39:43.973Z,89.83
2022-12-12T02:45:01.946Z,89.79
2022-12-12T02:50:12.166Z,89.48
2022-12-12T02:55:15.870Z,89.37
2022-12-12T03:00:19.858Z,89.52
2022-12-12T03:05:58.815Z,89.70
2022-12-12T03:11:28.159Z,89.48
2022-12-12T03:16:34.882Z,89.46
2022-12-12T03:21:50.969Z,89.53
2022-12-12T03:27:04.140Z,89.81
2022-12-12T03:32:19.510Z,89.69
2022-12-12T03:37:31.207Z,90.03
2022-12-12T03:43:15.664Z,89.73
2022-12-12T03:48:24.628Z,89.57
2022-12-12T03:53:37.377Z,89.61
2022-12-12T03:58:51.476Z,89.77
2022-12-12T04:04:12.103Z,89.79
2022-12-12T04:09:36.303Z,89.73
2022-12-12T04:14:59.883Z,90.12
2022-12-12T04:20:41.199Z,89.88
2022-12-12T04:26:41.771Z,89.76
2022-12-12T04:31:59.777Z,90.23
2022-12-12T04:37:04.109Z,90.10
2022-12-12T04:42:07.638Z,90.26
2022-12-12T04:47:10.454Z,90.16
2022-12-12T04:52:13.925Z,90.47
2022-12-12T04:57:24.049Z,90.59
2022-12-12T05:02:38.069Z,90.75
2022-12-12T05:07:44.510Z,90.86
2022-12-12T05:12:53.892Z,91.03
2022-12-12T05:18:08.186Z,90.94
2022-12-12T05:23:11.037Z,91.01
2022-12-12T05:28:13.933Z,91.23
2022-12-12T05:33:19.003Z,91.34
2022-12-12T05:38:21.720Z,91.20
2022-12-12T05:43:24.557Z,91.31
2022-12-12T05:48:27.834Z,91.68
2022-12-12T05:53:30.875Z,91.45
2022-12-12T05:58:34.759Z,91.87
2022-12-12T06:03:37.703Z,91.75
2022-12-12T06:08:40.719Z,91.85
2022-12-12T06:13:43.669Z,91.90
2022-12-12T06:18:56.108Z,91.80
2022-12-12T06:23:59.709Z,91.61
2022-12-12T06:29:02.470Z,91.71
2022-12-12T06:34:05.253Z,91.80
2022-12-12T06:39:08.053Z,91.78
2022-12-12T06:44:11.045Z,91.83
2022-12-12T06:49:13.832Z,92.02
2022-12-12T06:54:18.165Z,91.84
2022-12-12T06:59:20.967Z,91.97
2022-12-12T07:04:25.284Z,91.90
2022-12-12T07:09:29.534Z,92.00
2022-12-12T07:14:32.356Z,92.02
2022-12-12T07:19:35.496Z,91.88
2022-12-12T07:24:38.408Z,91.84
2022-12-12T07:29:41.246Z,91.99
2022-12-12T07:34:44.132Z,91.79
2022-12-12T07:39:46.951Z,91.84
2022-12-12T07:44:50.603Z,91.89
2022-12-12T07:49:54.525Z,91.91
2022-12-12T07:54:57.548Z,92.13
2022-12-12T08:00:00.563Z,92.12
2022-12-12T08:05:04.038Z,92.22
2022-12-12T08:10:07.297Z,92.36
2022-12-12T08:15:15.567Z,92.35
2022-12-12T08:20:19.120Z,92.12
2022-12-12T08:25:22.041Z,92.17
2022-12-12T08:30:24.832Z,91.88
2022-12-12T08:35:32.564Z,91.66
2022-12-12T08:40:35.972Z,91.65
2022-12-12T08:45:38.967Z,91.61
2022-12-12T08:50:41.902Z,91.72
2022-12-12T08:55:44.714Z,91.74
2022-12-12T09:00:47.505Z,91.64
2022-12-12T09:05:50.384Z,91.29
2022-12-12T09:10:53.357Z,90.94
2022-12-12T09:15:57.085Z,90.46
2022-12-12T09:21:00.624Z,90.20
2022-12-12T09:26:07.270Z,89.60
2022-12-12T09:31:11.707Z,89.57
2022-12-12T09:36:15.188Z,89.04
2022-12-12T09:41:20.535Z,88.99
2022-12-12T09:46:38.150Z,88.68
2022-12-12T09:51:44.326Z,88.66
2022-12-12T09:57:02.110Z,88.75
2022-12-12T10:02:23.463Z,88.74
2022-12-12T10:07:38.564Z,89.01
2022-12-12T10:12:41.326Z,88.25
2022-12-12T10:17:44.513Z,88.09
2022-12-12T10:23:05.729Z,88.23
2022-12-12T10:28:17.604Z,87.86
2022-12-12T10:33:36.938Z,87.58
2022-12-12T10:39:25.149Z,86.90
2022-12-12T10:45:02.675Z,86.80
2022-12-12T10:50:13.523Z,85.98
2022-12-12T10:55:34.842Z,86.24
2022-12-12T11:00:40.189Z,85.05
2022-12-12T11:05:43.604Z,85.22
2022-12-12T11:10:46.564Z,85.27
2022-12-12T11:15:57.870Z,85.19
2022-12-12T11:21:12.607Z,85.41
2022-12-12T11:26:19.395Z,84.52
2022-12-12T11:31:23.117Z,84.84
2022-12-12T11:36:38.744Z,85.09
2022-12-12T11:42:00.422Z,84.12
2022-12-12T11:47:18.357Z,84.76
2022-12-12T11:52:30.513Z,84.72
2022-12-12T11:57:58.961Z,84.96
2022-12-12T12:03:41.897Z,85.27
2022-12-12T12:09:40.670Z,85.61
2022-12-12T12:14:59.389Z,85.78
2022-12-12T12:20:22.450Z,85.53
2022-12-12T12:25:47.840Z,85.84
2022-12-12T12:31:03.065Z,86.01
2022-12-12T12:36:25.060Z,86.15
2022-12-12T12:41:44.464Z,86.04
2022-12-12T12:47:10.467Z,85.89
2022-12-12T12:52:40.377Z,86.20
2022-12-12T12:57:48.561Z,86.41
2022-12-12T13:03:13.774Z,86.46
2022-12-12T13:08:24.870Z,86.57
2022-12-12T13:13:34.294Z,86.87
2022-12-12T13:18:45.523Z,87.37
2022-12-12T13:24:14.623Z,87.63
2022-12-12T13:29:24.315Z,88.04
2022-12-12T13:34:28.764Z,87.94
2022-12-12T13:39:37.002Z,88.19
2022-12-12T13:44:48.340Z,88.75
2022-12-12T13:50:10.678Z,89.04
2022-12-12T13:55:13.979Z,89.43
2022-12-12T14:00:19.234Z,89.70
2022-12-12T14:05:26.898Z,90.22
2022-12-12T14:10:55.036Z,90.55
2022-12-12T14:15:57.927Z,90.74
2022-12-12T14:21:08.354Z,91.20
2022-12-12T14:26:29.845Z,91.19
2022-12-12T14:31:35.340Z,91.34
2022-12-12T14:37:22.524Z,91.59
2022-12-12T14:43:19.247Z,91.76
2022-12-12T14:48:32.598Z,91.87
2022-12-12T14:53:38.696Z,91.80
2022-12-12T14:58:45.654Z,91.71
2022-12-12T15:03:49.855Z,91.65
2022-12-12T15:08:54.021Z,91.88
2022-12-12T15:13:59.237Z,91.42
2022-12-12T15:19:01.988Z,91.46
2022-12-12T15:24:06.749Z,91.43
2022-12-12T15:29:16.703Z,91.25
2022-12-12T15:34:40.809Z,91.31
2022-12-12T15:39:44.492Z,91.34
2022-12-12T15:44:49.777Z,91.27
2022-12-12T15:49:54.362Z,91.26
2022-12-12T15:55:20.074Z,90.97
2022-12-12T16:00:36.232Z,90.99
2022-12-12T16:05:39.569Z,91.07
2022-12-12T16:10:52.913Z,91.01
2022-12-12T16:15:56.659Z,91.03
2022-12-12T16:21:00.811Z,91.04
2022-12-12T16:26:03.706Z,90.62
2022-12-12T16:31:06.965Z,90.53
2022-12-12T16:36:14.912Z,90.55
2022-12-12T16:41:18.074Z,90.58
2022-12-12T16:46:23.376Z,90.65
2022-12-12T16:51:32.361Z,90.44
2022-12-12T16:56:35.242Z,90.34
2022-12-12T17:01:39.009Z,90.54
2022-12-12T17:06:42.571Z,90.63
2022-12-12T17:11:46.046Z,90.73
2022-12-12T17:16:53.692Z,91.00
2022-12-12T17:21:56.529Z,91.00
2022-12-12T17:26:59.405Z,91.02
2022-12-12T17:32:02.275Z,91.28
2022-12-12T17:37:05.155Z,91.17
2022-12-12T17:42:07.922Z,90.86
2022-12-12T17:47:10.920Z,90.72
2022-12-12T17:52:14.106Z,90.86
2022-12-12T17:57:16.934Z,90.96
2022-12-12T18:02:20.284Z,90.89
2022-12-12T18:07:23.089Z,91.18
2022-12-12T18:12:25.880Z,91.54
2022-12-12T18:17:28.655Z,91.65
2022-12-12T18:22:31.463Z,91.78
2022-12-12T18:27:34.386Z,92.01
2022-12-12T18:32:38.048Z,92.26
2022-12-12T18:37:40.830Z,92.07
2022-12-12T18:42:43.534Z,92.28
2022-12-12T18:47:47.250Z,91.86
2022-12-12T18:52:50.013Z,91.63
2022-12-12T18:57:52.730Z,91.67
2022-12-12T19:02:55.952Z,91.36
2022-12-12T19:07:59.271Z,91.11
2022-12-12T19:13:02.039Z,91.26
2022-12-12T19:18:06.306Z,91.03
2022-12-12T19:23:09.091Z,91.11
2022-12-12T19:28:12.147Z,90.91
2022-12-12T19:33:15.886Z,90.72
2022-12-12T19:38:24.293Z,90.82
2022-12-12T19:43:30.546Z,90.80
2022-12-12T19:48:34.319Z,90.50
2022-12-12T19:53:44.412Z,90.52
2022-12-12T19:59:07.214Z,90.69
2022-12-12T20:04:23.333Z,90.71
2022-12-12T20:09:28.869Z,90.88
2022-12-12T20:14:33.727Z,91.01
2022-12-12T20:19:36.480Z,91.12
2022-12-12T20:24:40.683Z,90.99
2022-12-12T20:29:44.469Z,90.86
2022-12-12T20:34:47.410Z,90.83
2022-12-12T20:39:50.180Z,90.83
2022-12-12T20:44:53.333Z,91.07
2022-12-12T20:49:56.096Z,90.92
2022-12-12T20:54:58.832Z,90.77
2022-12-12T21:00:05.625Z,90.24
2022-12-12T21:05:09.718Z,90.40
2022-12-12T21:10:12.683Z,90.38
2022-12-12T21:15:15.809Z,90.35
2022-12-12T21:20:19.136Z,90.60
2022-12-12T21:25:24.364Z,90.43
2022-12-12T21:30:27.100Z,90.35
2022-12-12T21:35:29.831Z,90.44
2022-12-12T21:40:33.636Z,90.31
2022-12-12T21:45:39.537Z,90.23
2022-12-12T21:50:43.612Z,90.34
2022-12-12T21:55:47.232Z,90.64
2022-12-12T22:00:50.110Z,90.63
2022-12-12T22:05:52.988Z,90.56
2022-12-12T22:10:56.090Z,90.43
2022-12-12T22:16:00.004Z,90.49
2022-12-12T22:21:07.778Z,90.57
2022-12-12T22:26:23.985Z,90.31
2022-12-12T22:31:29.525Z,90.38
2022-12-12T22:36:35.523Z,90.36
2022-12-12T22:41:38.299Z,90.28
2022-12-12T22:46:44.494Z,90.16
2022-12-12T22:51:47.793Z,90.12
2022-12-12T22:56:50.697Z,90.14
2022-12-12T23:01:53.507Z,89.89
2022-12-12T23:06:56.308Z,89.84
2022-12-12T23:12:01.230Z,89.96
2022-12-12T23:17:04.560Z,90.00
2022-12-12T23:22:07.468Z,89.87
2022-12-12T23:27:10.335Z,89.61
2022-12-12T23:32:13.140Z,89.87
2022-12-12T23:37:16.072Z,89.56
2022-12-12T23:42:18.868Z,89.66
2022-12-12T23:47:21.658Z,89.66
2022-12-12T23:52:24.399Z,89.57
2022-12-12T23:57:27.264Z,89.34
